Time;durP1;ratioP1;P1;durP2;ratioP2;P2;SDS_P1;SDS_P2;PMS_P1;PMS_P2;Temp;Humidity;BMP_temperature;BMP_pressure;BME280_temperature;BME280_humidity;BME280_pressure;Samples;Min_cycle;Max_cycle;Signal;HPM_P1;HPM_P2
2023/03/01 00:01:29;;;;;;;9.57;6.78;;;7.60;70.80;;;;;;5053450;28;20067;-65
2023/03/01 00:03:56;;;;;;;8.15;7.32;;;7.50;70.90;;;;;;5052999;28;20409;-64
2023/03/01 00:06:22;;;;;;;7.40;6.40;;;7.50;71.10;;;;;;5052076;28;20029;-63
2023/03/01 00:08:48;;;;;;;9.80;7.32;;;7.50;71.50;;;;;;5053111;28;20032;-63
2023/03/01 00:11:13;;;;;;;8.15;6.95;;;7.50;71.50;;;;;;5052237;28;20025;-62
2023/03/01 00:13:40;;;;;;;8.05;6.30;;;7.50;71.50;;;;;;5053253;28;20021;-61
2023/03/01 00:16:08;;;;;;;9.43;6.40;;;7.50;71.40;;;;;;5053173;28;20086;-63
2023/03/01 00:18:34;;;;;;;7.75;6.15;;;7.50;71.30;;;;;;5052821;28;20024;-60
2023/03/01 00:21:00;;;;;;;8.60;5.78;;;7.50;71.20;;;;;;5053221;28;20043;-65
2023/03/01 00:23:26;;;;;;;6.40;5.72;;;7.50;71.20;;;;;;5052839;28;20478;-62
2023/03/01 00:25:52;;;;;;;10.85;6.40;;;7.50;71.50;;;;;;5053353;28;20021;-61
2023/03/01 00:28:18;;;;;;;6.78;5.60;;;7.50;71.80;;;;;;5052922;28;20382;-63
2023/03/01 00:30:44;;;;;;;8.55;6.22;;;7.50;71.70;;;;;;5052841;28;20029;-61
2023/03/01 00:33:13;;;;;;;9.20;7.00;;;7.40;71.80;;;;;;5052531;28;20029;-59
2023/03/01 00:35:39;;;;;;;10.35;6.40;;;7.40;71.80;;;;;;5053037;28;20381;-62
2023/03/01 00:38:05;;;;;;;7.60;6.45;;;7.40;71.90;;;;;;5052752;28;20029;-61
2023/03/01 00:40:33;;;;;;;6.82;6.03;;;7.40;72.30;;;;;;5051670;28;20029;-61
2023/03/01 00:42:59;;;;;;;10.07;6.00;;;7.40;72.30;;;;;;5052695;28;20443;-64
2023/03/01 00:45:24;;;;;;;9.43;6.32;;;7.40;72.20;;;;;;5052891;28;20489;-63
2023/03/01 00:47:51;;;;;;;7.35;6.15;;;7.30;72.30;;;;;;5051799;28;20025;-60
2023/03/01 00:50:17;;;;;;;7.13;6.43;;;7.30;72.20;;;;;;5052477;28;20465;-62
2023/03/01 00:52:43;;;;;;;9.93;6.88;;;7.30;72.30;;;;;;5052683;28;20063;-65
2023/03/01 00:55:09;;;;;;;8.13;6.40;;;7.40;72.50;;;;;;5050999;28;20017;-60
2023/03/01 00:57:35;;;;;;;7.18;6.15;;;7.40;72.40;;;;;;5052579;28;20029;-63
2023/03/01 01:00:01;;;;;;;9.57;6.47;;;7.30;72.70;;;;;;5052660;28;20036;-61
2023/03/01 01:02:26;;;;;;;6.35;5.75;;;7.30;72.50;;;;;;5051949;28;20133;-62
2023/03/01 01:04:52;;;;;;;7.53;6.18;;;7.30;72.90;;;;;;5052415;28;20025;-63
2023/03/01 01:07:19;;;;;;;9.40;7.28;;;7.20;72.60;;;;;;5044105;28;20068;-63
2023/03/01 01:09:45;;;;;;;7.57;6.53;;;7.30;73.00;;;;;;5026664;28;20029;-61
2023/03/01 01:12:11;;;;;;;8.98;6.40;;;7.20;73.20;;;;;;5012757;28;20041;-61
2023/03/01 01:14:37;;;;;;;8.80;6.40;;;7.30;73.20;;;;;;5009911;28;20038;-63
2023/03/01 01:17:02;;;;;;;8.88;6.57;;;7.30;73.10;;;;;;5011708;28;20026;-61
2023/03/01 01:19:28;;;;;;;9.07;6.72;;;7.30;72.90;;;;;;5012943;28;20111;-64
2023/03/01 01:21:54;;;;;;;7.93;6.47;;;7.30;73.40;;;;;;5012401;28;20164;-61
2023/03/01 01:24:19;;;;;;;7.43;6.63;;;7.20;73.50;;;;;;5012809;28;20065;-64
2023/03/01 01:26:45;;;;;;;7.25;5.95;;;7.30;73.60;;;;;;5012541;28;20025;-61
2023/03/01 01:29:12;;;;;;;9.10;5.95;;;7.30;73.40;;;;;;5012820;28;20026;-63
2023/03/01 01:31:39;;;;;;;7.05;6.18;;;7.30;73.70;;;;;;5011093;28;20026;-64
2023/03/01 01:34:07;;;;;;;8.13;6.47;;;7.30;73.70;;;;;;5053260;23;20093;-59
2023/03/01 01:36:33;;;;;;;8.60;6.88;;;7.30;73.70;;;;;;5032162;28;20108;-59
2023/03/01 01:38:59;;;;;;;11.68;6.30;;;7.30;73.60;;;;;;5032279;28;20017;-59
2023/03/01 01:41:27;;;;;;;8.10;6.40;;;7.30;73.50;;;;;;5032005;28;20061;-59
2023/03/01 01:44:20;;;;;;;8.18;6.32;;;7.30;73.60;;;;;;5032252;28;20071;-59
2023/03/01 01:47:05;;;;;;;9.57;6.80;;;7.30;73.50;;;;;;5032331;28;20036;-59
2023/03/01 01:49:44;;;;;;;8.48;6.00;;;7.30;73.70;;;;;;5032337;28;20026;-60
2023/03/01 01:52:25;;;;;;;11.95;6.32;;;7.20;73.80;;;;;;5032008;28;20021;-60
2023/03/01 01:54:57;;;;;;;8.70;6.90;;;7.20;74.40;;;;;;5032332;28;20041;-59
2023/03/01 01:57:39;;;;;;;7.80;6.47;;;7.20;74.30;;;;;;5031924;28;20022;-60
2023/03/01 02:00:07;;;;;;;;;;;7.20;74.40;;;;;;5033955;28;20501;-60
2023/03/01 02:02:33;;;;;;;7.93;6.03;;;7.20;74.30;;;;;;5035475;28;19921;-57
2023/03/01 02:05:10;;;;;;;7.28;6.53;;;7.20;74.60;;;;;;5035633;28;20048;-56
2023/03/01 02:07:39;;;;;;;8.93;7.18;;;7.20;74.80;;;;;;5035796;28;20029;-59
2023/03/01 02:10:05;;;;;;;9.52;6.10;;;7.10;74.70;;;;;;5035845;28;20470;-59
2023/03/01 02:12:32;;;;;;;9.80;6.38;;;7.10;74.80;;;;;;5035416;28;20022;-59
2023/03/01 02:14:57;;;;;;;8.15;6.32;;;7.10;74.80;;;;;;5035348;28;20112;-59
2023/03/01 02:17:23;;;;;;;9.23;6.88;;;7.10;74.90;;;;;;5035447;28;20100;-61
2023/03/01 02:20:12;;;;;;;9.55;6.55;;;7.00;75.10;;;;;;5035702;28;20029;-59
2023/03/01 02:22:39;;;;;;;7.55;6.60;;;7.00;75.20;;;;;;5035356;28;20510;-58
2023/03/01 02:25:19;;;;;;;8.82;6.82;;;7.10;75.30;;;;;;5035535;28;20072;-60
2023/03/01 02:28:03;;;;;;;8.52;6.53;;;7.10;75.30;;;;;;5034865;28;20041;-59
2023/03/01 02:30:30;;;;;;;9.75;6.32;;;7.10;75.40;;;;;;5035374;28;20056;-60
2023/03/01 02:33:02;;;;;;;8.18;6.10;;;7.00;75.70;;;;;;5034974;28;20437;-59
2023/03/01 02:35:32;;;;;;;10.93;6.90;;;7.00;75.80;;;;;;5035371;28;20083;-59
2023/03/01 02:38:00;;;;;;;7.75;6.95;;;7.00;75.90;;;;;;5035051;28;20033;-61
2023/03/01 02:40:29;;;;;;;9.68;6.70;;;7.00;76.20;;;;;;5035202;28;20022;-60
2023/03/01 02:42:56;;;;;;;8.57;7.03;;;7.00;76.00;;;;;;5015208;28;20045;-59
2023/03/01 02:45:22;;;;;;;7.35;6.20;;;6.90;76.20;;;;;;5026135;28;20022;-58
2023/03/01 02:47:49;;;;;;;11.15;7.07;;;6.90;76.50;;;;;;5014854;28;20153;-58
2023/03/01 02:50:29;;;;;;;9.63;6.57;;;6.90;76.50;;;;;;5014437;28;20105;-59
2023/03/01 02:53:16;;;;;;;9.32;6.93;;;6.90;76.60;;;;;;5014744;28;20438;-57
2023/03/01 02:55:42;;;;;;;7.95;6.63;;;6.90;76.60;;;;;;5014974;28;20104;-61
2023/03/01 02:58:08;;;;;;;7.95;6.82;;;6.80;76.70;;;;;;5014310;28;20084;-61
2023/03/01 03:00:46;;;;;;;11.20;7.20;;;6.80;76.70;;;;;;5015144;28;20084;-59
2023/03/01 03:03:14;;;;;;;8.00;7.05;;;6.80;76.70;;;;;;5014893;28;20081;-59
2023/03/01 03:05:40;;;;;;;9.75;7.45;;;6.80;76.90;;;;;;5015206;28;20022;-60
2023/03/01 03:08:07;;;;;;;7.55;6.80;;;6.80;77.60;;;;;;5014690;28;20081;-59
2023/03/01 03:10:39;;;;;;;8.38;7.47;;;6.80;77.10;;;;;;5014586;28;20022;-58
2023/03/01 03:13:08;;;;;;;11.13;7.75;;;6.80;77.30;;;;;;5013830;28;20033;-59
2023/03/01 03:15:35;;;;;;;10.93;7.43;;;6.80;77.20;;;;;;5014805;28;20021;-59
2023/03/01 03:18:04;;;;;;;13.25;7.63;;;6.80;77.30;;;;;;5014577;28;20084;-60
2023/03/01 03:20:30;;;;;;;9.10;7.53;;;6.70;77.40;;;;;;5014589;28;20395;-59
2023/03/01 03:23:00;;;;;;;10.15;7.85;;;6.70;77.40;;;;;;4996808;28;20066;-59
2023/03/01 03:25:27;;;;;;;10.70;7.50;;;6.70;77.50;;;;;;5014707;28;20482;-59
2023/03/01 03:27:56;;;;;;;8.95;7.90;;;6.70;77.60;;;;;;5014082;28;20072;-61
2023/03/01 03:30:24;;;;;;;12.57;7.78;;;6.70;77.90;;;;;;5014479;28;20033;-60
2023/03/01 03:32:52;;;;;;;10.27;7.72;;;6.70;78.00;;;;;;5013803;28;20022;-60
2023/03/01 03:35:29;;;;;;;11.48;8.52;;;6.70;77.90;;;;;;5014480;28;20076;-59
2023/03/01 03:38:01;;;;;;;10.88;8.35;;;6.60;78.20;;;;;;5014025;28;20361;-60
2023/03/01 03:40:29;;;;;;;14.32;8.20;;;6.60;78.20;;;;;;5014225;28;20033;-60
2023/03/01 03:42:55;;;;;;;10.98;8.48;;;6.60;78.30;;;;;;5013886;28;20113;-59
2023/03/01 03:45:21;;;;;;;9.10;8.18;;;6.60;78.50;;;;;;5014194;28;20496;-59
2023/03/01 03:47:47;;;;;;;9.18;8.15;;;6.60;78.70;;;;;;4996422;28;20034;-60
2023/03/01 03:50:15;;;;;;;9.63;8.45;;;6.60;78.80;;;;;;5014511;28;20384;-61
2023/03/01 03:52:41;;;;;;;10.02;8.85;;;6.60;78.90;;;;;;5013879;28;20034;-59
2023/03/01 03:55:10;;;;;;;9.73;8.30;;;6.50;79.00;;;;;;5013618;28;20430;-58
2023/03/01 03:57:53;;;;;;;13.38;8.93;;;6.50;79.00;;;;;;4996246;28;20014;-59
2023/03/01 04:00:23;;;;;;;11.98;9.10;;;6.50;79.20;;;;;;5014324;28;20088;-60
2023/03/01 04:02:50;;;;;;;9.75;8.73;;;6.50;79.30;;;;;;5013897;28;20502;-60
2023/03/01 04:05:17;;;;;;;11.35;8.68;;;6.50;79.30;;;;;;5013701;28;20432;-60
2023/03/01 04:07:43;;;;;;;9.27;7.70;;;6.50;79.50;;;;;;5013801;28;20080;-59
2023/03/01 04:10:13;;;;;;;12.07;8.88;;;6.50;79.60;;;;;;5013606;28;20443;-59
2023/03/01 04:12:38;;;;;;;10.82;8.70;;;6.50;79.60;;;;;;5013621;28;20026;-61
2023/03/01 04:15:13;;;;;;;11.07;8.80;;;6.50;79.80;;;;;;5013630;28;20129;-60
2023/03/01 04:17:46;;;;;;;12.82;9.05;;;6.40;79.70;;;;;;5013665;28;20026;-60
2023/03/01 04:20:17;;;;;;;12.68;9.00;;;6.40;79.80;;;;;;5013543;28;20044;-60
2023/03/01 04:22:47;;;;;;;11.40;8.93;;;6.40;79.80;;;;;;5013325;28;20038;-58
2023/03/01 04:25:14;;;;;;;13.55;8.80;;;6.40;79.90;;;;;;5013146;28;20099;-61
2023/03/01 04:27:40;;;;;;;11.40;9.02;;;6.40;80.00;;;;;;5013465;28;20022;-61
2023/03/01 04:30:07;;;;;;;11.48;8.60;;;6.40;80.00;;;;;;5013357;28;20018;-61
2023/03/01 04:32:32;;;;;;;13.38;8.88;;;6.40;80.00;;;;;;5013071;28;20455;-60
2023/03/01 04:34:58;;;;;;;9.55;8.55;;;6.40;80.10;;;;;;5013002;28;20100;-59
2023/03/01 04:37:25;;;;;;;11.10;8.75;;;6.40;80.20;;;;;;5013428;28;20029;-58
2023/03/01 04:39:50;;;;;;;9.35;8.30;;;6.30;80.20;;;;;;5012966;28;20022;-59
2023/03/01 04:42:18;;;;;;;10.52;8.43;;;6.30;80.20;;;;;;5013052;28;20034;-59
2023/03/01 04:44:45;;;;;;;9.82;8.82;;;6.30;80.20;;;;;;5013179;28;20049;-57
2023/03/01 04:47:11;;;;;;;10.43;8.73;;;6.30;80.20;;;;;;5013083;28;20036;-59
2023/03/01 04:49:36;;;;;;;10.02;8.45;;;6.30;80.20;;;;;;5013092;28;20034;-59
2023/03/01 04:52:02;;;;;;;11.88;8.15;;;6.30;80.30;;;;;;4995466;28;20045;-58
2023/03/01 04:54:29;;;;;;;11.80;9.15;;;6.30;80.40;;;;;;5012854;28;20100;-60
2023/03/01 04:56:55;;;;;;;10.38;8.57;;;6.30;80.30;;;;;;5012963;28;20025;-59
2023/03/01 04:59:23;;;;;;;11.77;8.85;;;6.30;80.20;;;;;;5012903;28;20030;-57
2023/03/01 05:01:50;;;;;;;11.70;9.10;;;6.20;80.20;;;;;;5012851;28;20577;-58
2023/03/01 05:04:15;;;;;;;9.93;8.27;;;6.20;80.40;;;;;;5012797;28;20048;-60
2023/03/01 05:06:41;;;;;;;13.02;9.00;;;6.20;80.30;;;;;;5013039;28;20112;-60
2023/03/01 05:09:07;;;;;;;11.75;8.13;;;6.20;80.00;;;;;;5012838;28;20471;-59
2023/03/01 05:11:35;;;;;;;10.10;8.65;;;6.10;79.90;;;;;;5012889;28;20018;-59
2023/03/01 05:14:03;;;;;;;11.85;8.25;;;6.10;80.10;;;;;;5012975;28;20037;-59
2023/03/01 05:16:30;;;;;;;11.82;8.38;;;6.10;79.90;;;;;;5012799;28;20053;-59
2023/03/01 05:18:56;;;;;;;12.50;8.63;;;6.10;79.70;;;;;;5012783;28;20026;-60
2023/03/01 05:21:22;;;;;;;10.35;8.00;;;6.10;79.80;;;;;;5012576;28;20360;-59
2023/03/01 05:23:48;;;;;;;13.05;8.73;;;6.10;79.80;;;;;;5012373;28;20034;-58
2023/03/01 05:26:15;;;;;;;10.63;8.18;;;6.10;79.60;;;;;;5012456;28;20022;-60
2023/03/01 05:28:41;;;;;;;11.50;7.88;;;6.10;79.60;;;;;;5013006;28;20026;-59
2023/03/01 05:31:09;;;;;;;9.20;7.95;;;6.00;79.50;;;;;;5012422;28;20036;-57
2023/03/01 05:33:39;;;;;;;35.92;9.80;;;6.00;79.60;;;;;;5012337;28;20126;-60
2023/03/01 05:36:07;;;;;;;7.80;6.45;;;6.00;80.00;;;;;;5015732;28;20022;-60
2023/03/01 05:38:33;;;;;;;11.38;6.90;;;6.00;82.00;;;;;;5016353;28;20030;-59
2023/03/01 05:40:59;;;;;;;9.00;7.15;;;6.10;81.60;;;;;;5016436;28;20056;-60
2023/03/01 05:43:25;;;;;;;7.57;6.78;;;6.10;81.70;;;;;;5016166;28;20038;-59
2023/03/01 05:45:51;;;;;;;10.30;7.07;;;6.10;81.60;;;;;;5016353;28;20080;-59
2023/03/01 05:48:19;;;;;;;7.40;6.13;;;6.20;81.20;;;;;;5016369;28;20105;-59
2023/03/01 05:50:46;;;;;;;8.55;5.95;;;6.20;81.00;;;;;;5016025;28;20109;-60
2023/03/01 05:53:18;;;;;;;8.32;6.05;;;6.20;81.00;;;;;;5016097;28;20376;-60
2023/03/01 05:55:45;;;;;;;7.57;6.38;;;6.30;80.70;;;;;;5016264;28;20029;-59
2023/03/01 05:58:14;;;;;;;9.73;6.28;;;6.20;80.80;;;;;;5015982;28;20475;-55
2023/03/01 06:00:40;;;;;;;9.63;5.55;;;6.30;80.90;;;;;;5017797;28;20061;-59
2023/03/01 06:03:06;;;;;;;7.45;6.65;;;6.30;80.60;;;;;;5027395;28;20061;-60
2023/03/01 06:05:31;;;;;;;9.00;6.40;;;6.30;80.70;;;;;;5034949;28;20071;-59
2023/03/01 06:08:01;;;;;;;10.00;7.05;;;6.30;80.70;;;;;;5033886;28;20087;-60
2023/03/01 06:10:26;;;;;;;10.23;7.18;;;6.20;78.80;;;;;;5033422;28;20021;-59
2023/03/01 06:12:53;;;;;;;11.30;7.82;;;6.20;78.60;;;;;;5034003;28;20048;-59
2023/03/01 06:15:19;;;;;;;10.75;7.70;;;6.10;78.50;;;;;;5033105;28;20024;-59
2023/03/01 06:17:45;;;;;;;10.13;8.13;;;6.10;78.60;;;;;;5033426;28;20438;-60
2023/03/01 06:20:20;;;;;;;11.88;6.75;;;6.00;78.60;;;;;;5030517;28;20577;-59
2023/03/01 06:22:47;;;;;;;9.55;7.40;;;6.00;78.70;;;;;;5021936;28;20029;-58
2023/03/01 06:25:14;;;;;;;9.07;7.18;;;5.90;78.80;;;;;;5032313;28;20351;-60
2023/03/01 06:27:41;;;;;;;10.85;7.75;;;5.90;78.90;;;;;;5019345;28;20030;-59
2023/03/01 06:30:10;;;;;;;11.35;7.30;;;5.90;79.00;;;;;;5029382;28;20022;-59
2023/03/01 06:32:36;;;;;;;8.98;7.55;;;5.90;79.00;;;;;;5023654;28;20030;-58
2023/03/01 06:35:03;;;;;;;12.70;7.47;;;5.90;78.90;;;;;;5033118;28;20021;-59
2023/03/01 06:37:29;;;;;;;8.85;7.55;;;5.80;78.70;;;;;;5034858;28;20499;-59
2023/03/01 06:39:54;;;;;;;9.30;7.10;;;5.80;78.80;;;;;;5032089;28;20058;-60
2023/03/01 06:42:20;;;;;;;11.02;7.63;;;5.70;78.90;;;;;;5026014;28;20132;-54
2023/03/01 06:44:45;;;;;;;10.43;8.15;;;5.70;79.30;;;;;;5027480;28;20029;-62
2023/03/01 06:47:11;;;;;;;9.45;7.88;;;5.70;79.00;;;;;;5025259;28;20025;-59
2023/03/01 06:49:37;;;;;;;12.25;7.45;;;5.70;79.40;;;;;;5027961;28;20429;-60
2023/03/01 06:52:03;;;;;;;10.40;7.32;;;5.70;79.50;;;;;;5027298;28;20037;-61
2023/03/01 06:54:28;;;;;;;12.88;8.02;;;5.70;79.10;;;;;;5031707;28;20025;-59
2023/03/01 06:56:54;;;;;;;14.50;8.40;;;5.70;79.10;;;;;;5030366;28;20143;-59
2023/03/01 06:59:20;;;;;;;10.70;7.63;;;5.70;78.90;;;;;;5032740;28;20025;-60
2023/03/01 07:01:45;;;;;;;12.45;8.13;;;5.70;79.00;;;;;;5026889;28;20030;-59
2023/03/01 07:04:13;;;;;;;11.68;7.93;;;5.70;78.90;;;;;;5030933;28;20044;-57
2023/03/01 07:06:38;;;;;;;10.73;7.20;;;5.70;78.90;;;;;;5027319;28;20536;-60
2023/03/01 07:09:04;;;;;;;15.82;11.15;;;5.60;79.70;;;;;;5031429;28;20029;-57
2023/03/01 07:11:29;;;;;;;11.60;9.93;;;5.70;79.20;;;;;;5031903;28;20469;-59
2023/03/01 07:13:55;;;;;;;13.07;9.57;;;5.70;78.90;;;;;;5032790;28;20026;-59
2023/03/01 07:16:21;;;;;;;11.18;8.07;;;5.70;79.20;;;;;;5031421;28;20026;-58
2023/03/01 07:18:47;;;;;;;10.55;7.30;;;5.50;80.90;;;;;;5012635;28;20057;-60
2023/03/01 07:21:14;;;;;;;9.25;7.32;;;5.50;80.00;;;;;;5034372;28;20032;-58
2023/03/01 07:23:40;;;;;;;11.60;7.43;;;5.50;79.70;;;;;;5033933;28;20064;-58
2023/03/01 07:26:06;;;;;;;14.02;8.27;;;5.60;80.30;;;;;;5034292;28;20028;-58
2023/03/01 07:28:35;;;;;;;12.20;7.60;;;5.50;80.50;;;;;;5016024;28;20025;-58
2023/03/01 07:31:05;;;;;;;12.55;8.77;;;5.60;80.70;;;;;;5034045;28;20057;-59
2023/03/01 07:33:31;;;;;;;13.27;7.05;;;5.60;80.60;;;;;;5033289;28;20394;-59
2023/03/01 07:36:01;;;;;;;10.25;7.82;;;5.60;80.20;;;;;;5033846;28;20028;-60
2023/03/01 07:38:28;;;;;;;12.38;7.60;;;5.70;80.30;;;;;;5033765;28;20021;-59
2023/03/01 07:40:57;;;;;;;13.05;7.22;;;5.70;80.20;;;;;;5034123;28;20391;-60
2023/03/01 07:43:23;;;;;;;10.52;7.40;;;5.70;80.10;;;;;;5034024;28;20048;-59
2023/03/01 07:45:48;;;;;;;15.48;6.72;;;5.80;80.00;;;;;;5033800;28;20017;-60
2023/03/01 07:48:14;;;;;;;9.32;7.25;;;5.80;79.80;;;;;;5033552;28;20437;-59
2023/03/01 07:50:39;;;;;;;13.80;8.15;;;5.80;79.90;;;;;;5033881;28;20073;-59
2023/03/01 07:53:05;;;;;;;11.00;7.70;;;5.90;79.80;;;;;;5033696;28;20065;-61
2023/03/01 07:55:30;;;;;;;9.40;7.47;;;5.90;79.60;;;;;;5033823;28;20029;-58
2023/03/01 07:57:56;;;;;;;10.23;7.32;;;5.90;79.60;;;;;;5033163;28;20026;-59
2023/03/01 08:00:22;;;;;;;10.20;7.55;;;6.00;79.60;;;;;;5033844;28;20096;-60
2023/03/01 08:02:47;;;;;;;9.73;7.70;;;6.00;79.50;;;;;;5061761;23;20410;-60
2023/03/01 08:05:13;;;;;;;10.25;7.13;;;6.00;79.30;;;;;;5053648;28;20041;-62
2023/03/01 08:07:38;;;;;;;12.30;6.82;;;6.10;80.10;;;;;;5053247;28;20025;-58
2023/03/01 08:10:04;;;;;;;9.45;8.27;;;6.00;79.10;;;;;;5053349;28;20170;-64
2023/03/01 08:12:30;;;;;;;10.07;7.45;;;6.10;79.30;;;;;;5053252;28;20032;-61
2023/03/01 08:14:56;;;;;;;12.85;6.68;;;6.20;78.20;;;;;;5052737;28;20021;-59
2023/03/01 08:17:22;;;;;;;13.27;8.57;;;6.20;77.80;;;;;;5052831;28;20064;-61
2023/03/01 08:19:48;;;;;;;8.20;7.32;;;6.20;77.30;;;;;;5053198;28;20057;-59
2023/03/01 08:22:13;;;;;;;10.15;7.50;;;6.20;77.40;;;;;;5053097;28;20039;-64
2023/03/01 08:24:39;;;;;;;11.50;7.75;;;6.20;77.30;;;;;;5053107;28;20033;-64
2023/03/01 08:27:05;;;;;;;9.27;6.95;;;6.20;77.40;;;;;;5053017;28;20083;-64
2023/03/01 08:29:31;;;;;;;9.32;7.03;;;6.30;77.10;;;;;;5053040;28;20029;-61
2023/03/01 08:31:57;;;;;;;12.15;7.35;;;6.40;75.80;;;;;;5034724;28;20025;-65
2023/03/01 08:34:22;;;;;;;9.93;6.18;;;6.30;76.30;;;;;;5052889;28;20450;-65
2023/03/01 08:36:49;;;;;;;8.13;6.88;;;6.30;76.10;;;;;;5052880;28;20450;-62
2023/03/01 08:39:18;;;;;;;10.30;6.85;;;6.40;75.70;;;;;;5052912;28;20022;-60
2023/03/01 08:41:43;;;;;;;8.75;6.78;;;6.40;75.30;;;;;;5052768;28;20458;-60
2023/03/01 08:44:12;;;;;;;9.40;7.38;;;6.40;75.60;;;;;;5052469;28;20040;-62
2023/03/01 08:46:40;;;;;;;8.73;6.90;;;6.40;75.60;;;;;;5052215;28;20062;-63
2023/03/01 08:49:12;;;;;;;9.93;7.95;;;6.40;75.70;;;;;;5052538;28;20564;-61
2023/03/01 08:51:37;;;;;;;9.13;7.05;;;6.50;75.30;;;;;;5052957;28;20377;-65
2023/03/01 08:54:10;;;;;;;8.80;6.70;;;6.40;75.70;;;;;;5052797;28;20507;-65
2023/03/01 08:56:35;;;;;;;10.15;7.25;;;6.60;74.80;;;;;;5052553;28;20029;-61
2023/03/01 08:59:01;;;;;;;9.15;7.13;;;6.60;74.90;;;;;;5052625;28;20024;-60
2023/03/01 09:01:26;;;;;;;11.23;7.22;;;6.60;74.60;;;;;;5052320;28;20443;-62
2023/03/01 09:03:52;;;;;;;10.02;6.70;;;6.50;74.80;;;;;;5052323;28;20040;-62
2023/03/01 09:06:18;;;;;;;10.80;7.68;;;6.50;74.80;;;;;;5052499;28;20029;-62
2023/03/01 09:08:46;;;;;;;10.98;7.75;;;6.50;75.20;;;;;;5051957;28;20147;-64
2023/03/01 09:11:16;;;;;;;11.23;7.18;;;6.60;74.20;;;;;;5052169;28;20021;-59
2023/03/01 09:13:42;;;;;;;10.95;7.43;;;6.60;74.00;;;;;;5052058;28;20094;-61
2023/03/01 09:16:08;;;;;;;11.85;7.45;;;6.60;73.80;;;;;;5052349;28;20467;-59
2023/03/01 09:18:35;;;;;;;9.75;7.68;;;6.60;74.20;;;;;;5052425;28;20031;-62
2023/03/01 09:21:21;;;;;;;8.40;7.25;;;6.70;73.20;;;;;;5052188;28;20031;-63
2023/03/01 09:23:47;;;;;;;11.20;7.40;;;6.70;73.30;;;;;;5052250;28;20048;-65
2023/03/01 09:26:18;;;;;;;8.82;7.18;;;6.60;73.20;;;;;;5052232;28;20462;-65
2023/03/01 09:28:45;;;;;;;11.82;6.93;;;6.70;73.00;;;;;;5034267;28;20111;-61
2023/03/01 09:31:12;;;;;;;10.65;7.57;;;6.70;73.10;;;;;;5052224;28;20031;-59
2023/03/01 09:33:39;;;;;;;10.57;7.60;;;6.60;73.60;;;;;;5052081;28;20029;-62
2023/03/01 09:36:07;;;;;;;9.63;6.85;;;6.60;73.50;;;;;;5052126;28;20072;-62
2023/03/01 09:38:33;;;;;;;11.13;7.80;;;6.60;73.00;;;;;;5052220;28;20030;-64
2023/03/01 09:41:00;;;;;;;8.80;6.32;;;6.70;72.90;;;;;;5052148;28;20597;-62
2023/03/01 09:43:54;;;;;;;8.10;7.30;;;6.70;72.80;;;;;;5034200;28;20402;-62
2023/03/01 09:46:23;;;;;;;8.65;6.78;;;6.80;72.40;;;;;;5052810;28;20051;-64
2023/03/01 09:48:55;;;;;;;10.85;7.65;;;6.80;72.40;;;;;;5052100;28;20055;-60
2023/03/01 09:51:31;;;;;;;7.82;6.95;;;6.70;72.60;;;;;;5052186;28;20084;-62
2023/03/01 09:54:00;;;;;;;11.52;6.97;;;6.70;73.00;;;;;;5052184;28;20116;-60
2023/03/01 09:56:34;;;;;;;10.52;8.10;;;6.80;72.60;;;;;;5052087;28;20013;-60
2023/03/01 09:59:44;;;;;;;8.82;6.85;;;6.80;71.90;;;;;;5052006;28;20021;-64
2023/03/01 10:02:41;;;;;;;9.00;7.22;;;6.80;72.40;;;;;;5051517;28;20036;-65
2023/03/01 10:05:38;;;;;;;10.93;7.88;;;6.80;71.80;;;;;;5052004;28;20021;-65
2023/03/01 10:08:25;;;;;;;9.45;7.28;;;6.90;71.00;;;;;;5051336;28;20083;-62
2023/03/01 10:10:52;;;;;;;9.07;7.75;;;6.80;71.40;;;;;;5051564;28;20025;-62
2023/03/01 10:13:59;;;;;;;8.38;6.57;;;6.80;71.30;;;;;;5051186;28;20477;-59
2023/03/01 10:16:28;;;;;;;8.40;6.88;;;6.80;70.50;;;;;;5030439;28;20079;-64
2023/03/01 10:19:00;;;;;;;8.40;6.28;;;6.80;71.00;;;;;;5051929;28;20028;-59
2023/03/01 10:21:27;;;;;;;8.73;6.63;;;6.80;71.00;;;;;;5054066;28;20033;-60
2023/03/01 10:23:54;;;;;;;8.63;6.93;;;6.80;70.50;;;;;;5055497;28;20060;-62
2023/03/01 10:26:43;;;;;;;7.40;6.45;;;6.80;71.00;;;;;;5054727;28;20025;-65
2023/03/01 10:29:11;;;;;;;8.95;7.72;;;6.90;71.00;;;;;;5054616;28;20394;-61
2023/03/01 10:31:40;;;;;;;8.90;7.30;;;6.90;70.80;;;;;;5055370;28;20028;-61
2023/03/01 10:34:30;;;;;;;8.73;6.63;;;6.80;71.60;;;;;;5055007;28;20079;-64
2023/03/01 10:37:09;;;;;;;11.40;7.15;;;6.90;70.70;;;;;;5054913;28;20029;-62
2023/03/01 10:39:35;;;;;;;10.88;6.55;;;6.90;71.10;;;;;;5055057;28;20025;-59
2023/03/01 10:42:18;;;;;;;9.75;7.00;;;7.00;70.10;;;;;;5054639;28;20021;-64
2023/03/01 10:44:46;;;;;;;8.43;6.75;;;7.00;70.20;;;;;;5054940;28;20391;-62
2023/03/01 10:47:20;;;;;;;10.85;6.63;;;7.00;69.80;;;;;;5054842;28;20151;-63
2023/03/01 10:50:05;;;;;;;8.88;7.47;;;7.00;70.70;;;;;;5054836;28;20029;-65
2023/03/01 10:52:41;;;;;;;12.15;7.07;;;7.00;70.10;;;;;;5054782;28;20032;-59
2023/03/01 10:55:15;;;;;;;9.52;7.13;;;7.00;70.50;;;;;;5055033;28;20025;-65
2023/03/01 10:57:42;;;;;;;8.88;7.50;;;7.00;70.50;;;;;;5054404;28;20470;-65
2023/03/01 11:00:19;;;;;;;8.52;6.85;;;7.10;70.20;;;;;;5054842;28;20071;-62
2023/03/01 11:02:48;;;;;;;11.18;7.53;;;7.00;70.50;;;;;;5054236;28;20131;-66
2023/03/01 11:05:14;;;;;;;9.68;7.35;;;7.10;70.70;;;;;;5054694;28;20048;-63
2023/03/01 11:07:57;;;;;;;8.23;7.38;;;7.10;70.60;;;;;;5053088;28;20036;-60
2023/03/01 11:10:34;;;;;;;8.23;5.97;;;7.20;70.50;;;;;;5044189;28;20052;-67
2023/03/01 11:13:20;;;;;;;9.88;6.68;;;7.10;69.60;;;;;;5052541;28;20028;-60
2023/03/01 11:16:00;;;;;;;8.82;6.35;;;7.10;70.70;;;;;;5043821;28;20087;-61
2023/03/01 11:18:26;;;;;;;7.68;6.75;;;7.10;71.10;;;;;;5039612;28;20037;-65
2023/03/01 11:20:55;;;;;;;8.48;6.82;;;7.20;70.60;;;;;;5045467;28;20087;-63
2023/03/01 11:23:22;;;;;;;7.85;6.38;;;7.30;69.80;;;;;;5039146;28;20487;-60
2023/03/01 11:26:02;;;;;;;9.18;6.55;;;7.20;70.40;;;;;;5050682;28;20025;-65
2023/03/01 11:28:29;;;;;;;10.93;7.10;;;7.20;70.60;;;;;;5041763;28;20043;-64
2023/03/01 11:31:13;;;;;;;7.43;6.18;;;7.20;70.20;;;;;;5046313;28;20021;-63
2023/03/01 11:34:07;;;;;;;7.88;6.68;;;7.30;70.20;;;;;;5044780;28;20379;-63
2023/03/01 11:36:43;;;;;;;8.57;6.60;;;7.30;70.00;;;;;;5037224;28;20049;-62
2023/03/01 11:39:32;;;;;;;7.63;5.88;;;7.30;70.30;;;;;;5030286;28;20478;-60
2023/03/01 11:42:22;;;;;;;8.98;7.03;;;7.30;70.10;;;;;;5033229;28;20052;-60
2023/03/01 11:44:54;;;;;;;11.00;8.55;;;7.30;70.40;;;;;;5037107;28;20116;-63
2023/03/01 11:47:28;;;;;;;7.40;6.07;;;7.30;70.30;;;;;;5039674;28;20538;-64
2023/03/01 11:50:23;;;;;;;7.97;6.55;;;7.30;70.10;;;;;;5050935;28;20048;-65
2023/03/01 11:52:56;;;;;;;8.13;6.45;;;7.30;70.10;;;;;;5038736;28;20500;-63
2023/03/01 11:56:09;;;;;;;7.68;6.38;;;7.30;70.30;;;;;;5038024;28;20072;-64
2023/03/01 11:58:42;;;;;;;12.43;6.28;;;7.40;69.90;;;;;;5045138;28;20044;-60
2023/03/01 12:01:29;;;;;;;8.35;6.03;;;7.40;69.60;;;;;;5044630;28;20382;-65
2023/03/01 12:04:06;;;;;;;7.03;5.97;;;7.40;69.70;;;;;;5033335;28;20120;-59
2023/03/01 12:06:52;;;;;;;7.72;6.22;;;7.40;69.50;;;;;;5034770;28;20546;-64
2023/03/01 12:09:27;;;;;;;8.73;7.05;;;7.40;70.30;;;;;;5040811;28;20033;-62
2023/03/01 12:12:04;;;;;;;8.25;5.93;;;7.50;70.00;;;;;;5037644;28;20025;-60
2023/03/01 12:14:50;;;;;;;12.15;6.20;;;7.50;69.40;;;;;;5017444;28;20037;-63
2023/03/01 12:17:29;;;;;;;11.15;6.07;;;7.50;69.90;;;;;;5039983;28;20073;-63
2023/03/01 12:20:29;;;;;;;8.80;5.53;;;7.50;70.30;;;;;;5048140;28;20029;-62
2023/03/01 12:23:28;;;;;;;7.57;6.22;;;7.50;70.30;;;;;;5034044;28;20091;-64
2023/03/01 12:26:17;;;;;;;8.07;6.43;;;7.60;70.80;;;;;;5033097;28;20109;-65
2023/03/01 12:28:55;;;;;;;9.20;5.65;;;7.60;70.10;;;;;;5033136;28;20489;-60
2023/03/01 12:31:32;;;;;;;9.00;5.80;;;7.60;70.20;;;;;;5046365;28;20028;-64
2023/03/01 12:34:00;;;;;;;9.68;6.38;;;7.70;69.80;;;;;;5051100;28;20025;-64
2023/03/01 12:36:42;;;;;;;8.60;5.55;;;7.70;70.20;;;;;;5048708;28;20066;-65
2023/03/01 12:39:16;;;;;;;7.28;5.82;;;7.70;72.00;;;;;;5033196;28;20026;-66
2023/03/01 12:42:05;;;;;;;6.20;5.28;;;7.70;71.50;;;;;;5035210;28;20033;-61
2023/03/01 12:44:53;;;;;;;5.72;4.75;;;7.80;70.70;;;;;;5044169;28;20140;-61
2023/03/01 12:47:42;;;;;;;7.35;5.35;;;7.80;71.70;;;;;;5038283;28;20455;-61
2023/03/01 12:50:21;;;;;;;8.00;5.25;;;7.80;71.20;;;;;;5033113;28;20028;-60
2023/03/01 12:52:57;;;;;;;7.85;5.43;;;7.90;71.80;;;;;;5038066;28;20029;-62
2023/03/01 12:55:40;;;;;;;8.88;5.00;;;7.90;70.40;;;;;;5044147;28;20430;-60
2023/03/01 12:58:41;;;;;;;5.60;4.95;;;7.90;72.40;;;;;;5050372;28;20036;-59
2023/03/01 13:01:36;;;;;;;7.40;5.32;;;8.00;73.40;;;;;;5051888;28;20017;-59
2023/03/01 13:04:21;;;;;;;7.55;4.78;;;8.00;72.30;;;;;;5052311;28;20048;-60
2023/03/01 13:07:05;;;;;;;5.78;4.25;;;8.00;72.20;;;;;;5050890;28;20021;-60
2023/03/01 13:10:01;;;;;;;9.48;5.30;;;8.10;75.10;;;;;;5052481;28;20036;-60
2023/03/01 13:12:49;;;;;;;5.43;4.85;;;8.10;72.20;;;;;;5052309;28;20029;-59